Форум клана ЧПУшников

Информация о пользователе

Привет, Гость! Войдите или зарегистрируйтесь.


Вы здесь » Форум клана ЧПУшников » Лазерные станки


Лазерные станки

Тем 211 страница 280 из 400

Тема Ответов Просмотров Последнее сообщение
3 162 25-07-2016 12:13:13  Kuz
1 232 20-07-2016 16:00:47  Maxim Korolev
6 393 19-07-2016 20:00:25  YuSTas
2 98 18-07-2016 10:25:53  byshaeva
81 2325 17-07-2016 11:06:33  Сергей Кравчик
216 покупаем лазер  sergeywopros
15 2357 13-07-2016 23:39:56  skydmit
118 5425 11-07-2016 12:21:21  f.laser
2 227 09-07-2016 14:27:04  Killa312
11 508 07-07-2016 15:18:42  Hotory
25 644 27-06-2016 21:44:32  Salon-max
38 1982 27-06-2016 05:30:23  Юрецкий
14 398 26-06-2016 11:49:07  Quark
48 1125 24-06-2016 20:06:01  Иван1985
9 553 24-06-2016 19:54:50  Иван1985
16 611 24-06-2016 15:25:23  Sergey AA
2 98 24-06-2016 12:14:53  messer1988
8 432 22-06-2016 15:04:25  Sergey AA
8 544 16-06-2016 22:36:09  megagad
4 301 12-06-2016 18:36:42  *SvEtLaNKa*
207 16914 12-06-2016 11:02:33  Andrey55
4 206 06-06-2016 09:19:33  Zmeei
24 759 02-06-2016 16:29:32  Sofka
16 347 02-06-2016 09:43:13  ilcomp
3 125 31-05-2016 11:04:49  SmileCat
14 430 29-05-2016 10:38:37  Neudrums
19 806 28-05-2016 00:03:48  Sborka
124 10764 26-05-2016 03:33:17  Luaz007
19 216 25-05-2016 12:15:46  Mikky
8 381 24-05-2016 15:31:24  sonr
21 1471 23-05-2016 23:42:46  Avel
241 Волнистый рез  angrydemon
4 194 23-05-2016 17:44:30  YuSTas
11 693 06-05-2016 12:21:49  Юрецкий
2 112 05-05-2016 11:02:05  Kuz
7 398 04-05-2016 01:16:19  snowman
10 294 28-04-2016 20:21:01  Kirian
1 124 28-04-2016 19:58:34  Kirian
37 939 28-04-2016 14:14:04  neotex
3 480 27-04-2016 20:39:04  andrey_e
6 258 27-04-2016 16:16:09  denisej
250 Reci s2  Neudrums
35 859 26-04-2016 21:17:31  Элинка
5 420 25-04-2016 16:52:18  MPN
15 1087 23-04-2016 22:53:06  Sokrat
9 403 23-04-2016 17:45:11  Tab
35 892 23-04-2016 13:05:00  Valera5609
20 641 21-04-2016 12:48:47  Silmaril
18 924 21-04-2016 12:07:58  f.laser
1 150 17-04-2016 23:10:04  megagad
258 Резка с углекислотой  Виктор Краски
23 657 17-04-2016 08:59:55  Flint2015
13 1735 15-04-2016 11:34:20  ImageLaser
11 250 11-04-2016 14:35:21  MaxMaster
13 335 09-04-2016 20:30:46  aldushin
5 253 06-04-2016 17:28:09  daguss
996 88671 29-03-2016 17:50:18  sva-don
14 342 26-03-2016 10:17:16  Егорий
265 Закрыта Резко упала мощность  Neudrums
10 293 24-03-2016 00:59:57  Neudrums
5 373 22-03-2016 20:12:39  Дилик
19 1393 16-03-2016 23:19:45  Falcor
268 Прошу помощи.  Назар
5 253 16-03-2016 09:51:09  Назар
8 217 14-03-2016 16:51:53  Расулыч
21 5661 13-03-2016 19:24:18  barabaschka09
7 276 10-03-2016 20:36:59  chirik
5 641 07-03-2016 20:32:32  Flint2015
19 1614 04-03-2016 17:27:39  Airside
4 171 29-02-2016 22:43:44  nikson
5 144 27-02-2016 08:50:26  Flint2015
276 Тестирование размера реза  Виктор Краски
9 453 26-02-2016 16:55:55  daguss
277 кривая резка  Восходник
17 431 26-02-2016 00:06:30  semerochka
80 5090 22-02-2016 20:51:36  Kinetic
32 875 22-02-2016 20:11:19  Kinetic
17 786 22-02-2016 12:02:26  Kinetic

Вы здесь » Форум клана ЧПУшников » Лазерные станки